createdAt,value
2019-01-20T00:00:57.966Z,6.60
2019-01-20T00:01:57.946Z,6.50
2019-01-20T00:02:57.980Z,5.70
2019-01-20T00:03:57.939Z,6.10
2019-01-20T00:04:57.909Z,6.10
2019-01-20T00:05:57.912Z,6.10
2019-01-20T00:06:57.898Z,5.50
2019-01-20T00:07:57.936Z,5.70
2019-01-20T00:08:57.911Z,6.00
2019-01-20T00:09:57.879Z,6.10
2019-01-20T00:10:57.885Z,5.80
2019-01-20T00:11:57.880Z,5.90
2019-01-20T00:12:57.858Z,5.80
2019-01-20T00:13:57.827Z,5.70
2019-01-20T00:14:57.821Z,5.70
2019-01-20T00:15:57.817Z,6.30
2019-01-20T00:16:57.787Z,5.90
2019-01-20T00:17:57.796Z,6.00
2019-01-20T00:18:57.789Z,6.20
2019-01-20T00:19:57.775Z,6.00
2019-01-20T00:20:57.790Z,6.00
2019-01-20T00:21:57.759Z,5.90
2019-01-20T00:22:57.771Z,6.30
2019-01-20T00:23:57.766Z,5.60
2019-01-20T00:24:57.731Z,6.50
2019-01-20T00:25:57.727Z,6.20
2019-01-20T00:26:57.689Z,6.20
2019-01-20T00:27:57.698Z,6.20
2019-01-20T00:28:57.696Z,6.70
2019-01-20T00:29:57.666Z,6.00
2019-01-20T00:30:57.686Z,7.00
2019-01-20T00:31:57.642Z,6.10
2019-01-20T00:32:57.622Z,6.30
2019-01-20T00:33:57.613Z,5.80
2019-01-20T00:34:57.631Z,5.60
2019-01-20T00:35:57.590Z,6.00
2019-01-20T00:36:57.585Z,6.20
2019-01-20T00:37:57.580Z,6.20
2019-01-20T00:38:57.565Z,6.40
2019-01-20T00:39:57.552Z,5.80
2019-01-20T00:40:57.540Z,6.20
2019-01-20T00:41:57.576Z,6.00
2019-01-20T00:42:57.527Z,6.10
2019-01-20T00:43:57.506Z,6.00
2019-01-20T00:45:02.540Z,5.70
2019-01-20T00:45:58.489Z,5.80
2019-01-20T00:46:57.472Z,5.50
2019-01-20T00:47:57.466Z,5.90
2019-01-20T00:48:57.448Z,5.70
2019-01-20T00:49:57.446Z,6.10
2019-01-20T00:50:57.454Z,5.70
2019-01-20T00:51:57.427Z,5.60
2019-01-20T00:52:57.433Z,5.60
2019-01-20T00:53:57.408Z,5.90
2019-01-20T00:54:57.448Z,5.70
2019-01-20T00:55:57.386Z,5.80
2019-01-20T00:56:57.374Z,5.70
2019-01-20T00:57:57.403Z,6.10
2019-01-20T00:58:57.364Z,6.30
2019-01-20T00:59:57.361Z,5.90
2019-01-20T01:00:57.335Z,6.00
2019-01-20T01:01:57.333Z,5.80
2019-01-20T01:02:57.334Z,6.00
2019-01-20T01:03:57.303Z,6.10
2019-01-20T01:04:57.307Z,6.10
2019-01-20T01:05:57.277Z,5.40
2019-01-20T01:06:57.276Z,5.80
2019-01-20T01:07:57.257Z,6.60
2019-01-20T01:08:57.243Z,5.80
2019-01-20T01:09:57.279Z,5.90
2019-01-20T01:10:57.230Z,5.60
2019-01-20T01:11:57.225Z,5.90
2019-01-20T01:12:57.196Z,5.90
2019-01-20T01:13:57.203Z,6.20
2019-01-20T01:14:57.203Z,6.00
2019-01-20T01:15:57.181Z,6.10
2019-01-20T01:16:57.170Z,6.40
2019-01-20T01:17:57.149Z,6.50
2019-01-20T01:18:57.161Z,6.50
2019-01-20T01:19:57.142Z,6.20
2019-01-20T01:20:57.210Z,6.30
2019-01-20T01:21:57.146Z,6.60
2019-01-20T01:22:57.116Z,6.30
2019-01-20T01:23:57.109Z,6.50
2019-01-20T01:24:57.117Z,6.30
2019-01-20T01:25:57.130Z,6.50
2019-01-20T01:26:57.078Z,6.40
2019-01-20T01:27:57.068Z,6.60
2019-01-20T01:28:57.068Z,6.70
2019-01-20T01:29:57.048Z,6.50
2019-01-20T01:30:57.027Z,6.60
2019-01-20T01:31:57.015Z,6.70
2019-01-20T01:32:57.008Z,6.70
2019-01-20T01:33:57.017Z,6.40
2019-01-20T01:34:56.989Z,6.80
2019-01-20T01:35:56.973Z,7.40
2019-01-20T01:36:56.973Z,6.50
2019-01-20T01:37:56.948Z,6.80
2019-01-20T01:38:56.946Z,6.90
2019-01-20T01:39:56.934Z,7.20
2019-01-20T01:40:56.918Z,6.70
2019-01-20T01:41:56.934Z,6.90
2019-01-20T01:42:56.896Z,6.90
2019-01-20T01:43:56.898Z,6.20
2019-01-20T01:44:56.876Z,6.70
2019-01-20T01:45:56.866Z,7.20
2019-01-20T01:46:56.869Z,6.80
2019-01-20T01:47:56.848Z,6.80
2019-01-20T01:48:56.882Z,6.70
2019-01-20T01:49:56.842Z,7.10
2019-01-20T01:50:56.847Z,7.10
2019-01-20T01:51:56.826Z,6.80
2019-01-20T01:52:56.815Z,7.00
2019-01-20T01:53:56.794Z,6.90
2019-01-20T01:54:56.830Z,7.00
2019-01-20T01:55:56.759Z,6.90
2019-01-20T01:56:56.782Z,7.00
2019-01-20T01:57:56.741Z,6.80
2019-01-20T01:58:56.745Z,7.20
2019-01-20T01:59:56.721Z,6.80
2019-01-20T02:00:56.729Z,6.80
2019-01-20T02:01:56.701Z,6.90
2019-01-20T02:02:56.730Z,7.00
2019-01-20T02:03:56.685Z,7.00
2019-01-20T02:04:56.671Z,6.70
2019-01-20T02:05:56.676Z,6.60
2019-01-20T02:06:56.641Z,7.20
2019-01-20T02:07:56.638Z,6.80
2019-01-20T02:08:56.633Z,6.80
2019-01-20T02:09:56.625Z,6.90
2019-01-20T02:10:56.601Z,6.80
2019-01-20T02:11:56.603Z,7.70
2019-01-20T02:12:56.594Z,6.10
2019-01-20T02:13:56.617Z,7.60
2019-01-20T02:14:56.570Z,7.20
2019-01-20T02:15:56.553Z,6.80
2019-01-20T02:16:56.536Z,6.90
2019-01-20T02:17:56.558Z,7.20
2019-01-20T02:18:56.529Z,6.90
2019-01-20T02:19:56.511Z,6.90
2019-01-20T02:20:56.509Z,6.90
2019-01-20T02:21:56.511Z,6.80
2019-01-20T02:22:56.500Z,7.20
2019-01-20T02:23:56.500Z,6.50
2019-01-20T02:24:56.492Z,7.30
2019-01-20T02:25:56.454Z,6.90
2019-01-20T02:26:56.449Z,7.00
2019-01-20T02:27:56.457Z,6.90
2019-01-20T02:28:56.416Z,6.70
2019-01-20T02:29:56.399Z,6.50
2019-01-20T02:30:56.413Z,7.00
2019-01-20T02:31:56.390Z,6.70
2019-01-20T02:32:56.398Z,6.60
2019-01-20T02:33:56.355Z,6.50
2019-01-20T02:34:56.358Z,6.30
2019-01-20T02:35:56.338Z,6.50
2019-01-20T02:36:56.331Z,6.90
2019-01-20T02:37:56.363Z,7.20
2019-01-20T02:38:56.321Z,7.00
2019-01-20T02:39:56.358Z,6.60
2019-01-20T02:40:56.301Z,6.20
2019-01-20T02:41:56.271Z,6.60
2019-01-20T02:42:56.288Z,6.10
2019-01-20T02:43:56.263Z,6.90
2019-01-20T02:44:56.265Z,6.30
2019-01-20T02:45:56.267Z,6.50
2019-01-20T02:46:56.227Z,6.10
2019-01-20T02:47:56.242Z,6.30
2019-01-20T02:48:56.211Z,6.40
2019-01-20T02:49:56.199Z,6.20
2019-01-20T02:50:56.199Z,5.90
2019-01-20T02:51:56.184Z,6.00
2019-01-20T02:52:56.170Z,6.30
2019-01-20T02:53:56.159Z,6.10
2019-01-20T02:54:56.172Z,6.60
2019-01-20T02:55:56.138Z,5.70
2019-01-20T02:56:56.129Z,6.40
2019-01-20T02:57:56.144Z,6.00
2019-01-20T02:58:56.157Z,6.10
2019-01-20T02:59:56.094Z,5.70
2019-01-20T03:00:56.109Z,6.10
2019-01-20T03:01:56.087Z,6.20
2019-01-20T03:02:56.085Z,6.40
2019-01-20T03:03:56.088Z,5.80
2019-01-20T03:04:56.090Z,5.70
2019-01-20T03:05:56.034Z,5.80
2019-01-20T03:06:56.031Z,6.00
2019-01-20T03:07:56.056Z,5.80
2019-01-20T03:08:56.046Z,5.80
2019-01-20T03:09:56.032Z,5.50
2019-01-20T03:10:55.996Z,5.60
2019-01-20T03:12:03.276Z,5.20
2019-01-20T03:12:56.968Z,5.80
2019-01-20T03:13:55.958Z,5.60
2019-01-20T03:14:55.949Z,5.70
2019-01-20T03:15:55.918Z,5.60
2019-01-20T03:16:55.908Z,5.60
2019-01-20T03:17:55.906Z,6.00
2019-01-20T03:18:55.925Z,5.50
2019-01-20T03:19:55.919Z,5.20
2019-01-20T03:20:55.864Z,5.70
2019-01-20T03:21:55.875Z,5.20
2019-01-20T03:22:55.852Z,5.10
2019-01-20T03:23:55.854Z,5.40
2019-01-20T03:24:55.876Z,5.20
2019-01-20T03:25:55.844Z,5.50
2019-01-20T03:26:55.829Z,5.20
2019-01-20T03:27:55.793Z,5.20
2019-01-20T03:28:55.791Z,5.10
2019-01-20T03:29:55.792Z,5.00
2019-01-20T03:30:55.791Z,5.20
2019-01-20T03:31:55.788Z,5.50
2019-01-20T03:32:55.751Z,5.10
2019-01-20T03:33:55.739Z,5.70
2019-01-20T03:34:55.731Z,5.70
2019-01-20T03:35:55.728Z,5.10
2019-01-20T03:36:55.723Z,5.80
2019-01-20T03:37:55.712Z,5.70
2019-01-20T03:38:55.715Z,6.10
2019-01-20T03:39:55.682Z,5.50
2019-01-20T03:40:55.702Z,5.70
2019-01-20T03:41:55.674Z,6.00
2019-01-20T03:42:55.648Z,5.60
2019-01-20T03:43:55.646Z,5.70
2019-01-20T03:44:55.634Z,6.00
2019-01-20T03:45:55.611Z,5.30
2019-01-20T03:46:55.632Z,6.00
2019-01-20T03:47:55.624Z,6.20
2019-01-20T03:48:55.607Z,6.20
2019-01-20T03:49:55.581Z,6.10
2019-01-20T03:50:55.580Z,6.70
2019-01-20T03:51:55.559Z,6.40
2019-01-20T03:52:55.549Z,6.40
2019-01-20T03:53:55.553Z,6.30
2019-01-20T03:54:55.532Z,6.70
2019-01-20T03:55:55.528Z,6.00
2019-01-20T03:56:55.506Z,6.20
2019-01-20T03:57:55.494Z,6.40
2019-01-20T03:58:55.481Z,6.50
2019-01-20T03:59:55.484Z,6.40
2019-01-20T04:00:55.465Z,6.30
2019-01-20T04:01:55.453Z,6.20
2019-01-20T04:02:55.444Z,6.40
2019-01-20T04:03:55.467Z,6.30
2019-01-20T04:04:55.442Z,5.90
2019-01-20T04:05:55.426Z,6.00
2019-01-20T04:06:55.394Z,5.70
2019-01-20T04:07:55.402Z,5.60
2019-01-20T04:08:55.389Z,5.60
2019-01-20T04:09:55.359Z,5.80
2019-01-20T04:10:55.346Z,6.10
2019-01-20T04:11:55.335Z,6.30
2019-01-20T04:12:55.342Z,6.30
2019-01-20T04:13:55.370Z,5.80
2019-01-20T04:14:55.325Z,6.10
2019-01-20T04:15:55.305Z,6.40
2019-01-20T04:16:55.311Z,6.00
2019-01-20T04:17:55.311Z,5.80
2019-01-20T04:18:55.268Z,6.50
2019-01-20T04:19:55.270Z,6.30
2019-01-20T04:20:55.262Z,6.20
2019-01-20T04:21:55.239Z,5.70
2019-01-20T04:22:55.248Z,5.80
2019-01-20T04:23:55.227Z,6.40
2019-01-20T04:24:55.207Z,6.20
2019-01-20T04:25:55.199Z,5.60
2019-01-20T04:26:55.192Z,5.70
2019-01-20T04:27:55.184Z,6.30
2019-01-20T04:28:55.185Z,6.20
2019-01-20T04:29:55.183Z,6.00
2019-01-20T04:30:55.164Z,5.70
2019-01-20T04:31:55.139Z,5.30
2019-01-20T04:32:55.131Z,6.50
2019-01-20T04:33:55.121Z,5.70
2019-01-20T04:34:55.121Z,5.80
2019-01-20T04:35:55.120Z,5.60
2019-01-20T04:36:55.085Z,5.60
2019-01-20T04:37:55.083Z,6.10
2019-01-20T04:38:55.062Z,6.10
2019-01-20T04:39:55.068Z,6.40
2019-01-20T04:40:55.054Z,5.90
2019-01-20T04:41:55.029Z,5.80
2019-01-20T04:42:55.028Z,5.70
2019-01-20T04:43:55.023Z,5.50
2019-01-20T04:44:55.025Z,6.20
2019-01-20T04:45:54.993Z,5.90
2019-01-20T04:46:54.985Z,5.60
2019-01-20T04:47:55.026Z,5.90
2019-01-20T04:48:54.965Z,5.90
2019-01-20T04:49:54.966Z,5.90
2019-01-20T04:50:54.933Z,5.80
2019-01-20T04:51:54.921Z,5.80
2019-01-20T04:52:54.922Z,5.80
2019-01-20T04:53:54.915Z,6.00
2019-01-20T04:54:54.925Z,5.70
2019-01-20T04:55:54.896Z,6.00
2019-01-20T04:56:54.873Z,5.80
2019-01-20T04:57:54.871Z,6.10
2019-01-20T04:58:54.864Z,5.50
2019-01-20T04:59:54.851Z,5.20
2019-01-20T05:00:54.852Z,5.40
2019-01-20T05:01:54.843Z,5.90
2019-01-20T05:02:54.813Z,6.20
2019-01-20T05:03:54.797Z,5.80
2019-01-20T05:04:54.791Z,6.00
2019-01-20T05:05:54.803Z,5.50
2019-01-20T05:06:54.807Z,5.20
2019-01-20T05:07:54.824Z,5.80
2019-01-20T05:08:54.766Z,5.70
2019-01-20T05:09:54.759Z,6.10
2019-01-20T05:10:54.743Z,5.90
2019-01-20T05:11:54.732Z,5.90
2019-01-20T05:12:54.734Z,5.90
2019-01-20T05:13:54.735Z,6.00
2019-01-20T05:14:54.686Z,5.80
2019-01-20T05:15:54.675Z,5.50
2019-01-20T05:16:54.706Z,5.70
2019-01-20T05:17:54.660Z,5.70
2019-01-20T05:18:54.662Z,5.50
2019-01-20T05:19:54.680Z,6.50
2019-01-20T05:20:54.630Z,5.40
2019-01-20T05:21:54.617Z,5.70
2019-01-20T05:22:54.607Z,5.20
2019-01-20T05:23:54.597Z,5.60
2019-01-20T05:24:54.604Z,5.40
2019-01-20T05:25:54.606Z,5.70
2019-01-20T05:26:54.571Z,6.20
2019-01-20T05:27:54.549Z,5.80
2019-01-20T05:28:54.575Z,6.30
2019-01-20T05:29:54.542Z,5.70
2019-01-20T05:30:54.548Z,5.70
2019-01-20T05:31:54.545Z,5.50
2019-01-20T05:32:54.501Z,5.20
2019-01-20T05:33:54.491Z,5.70
2019-01-20T05:34:54.509Z,5.50
2019-01-20T05:35:54.482Z,5.70
2019-01-20T05:36:54.500Z,5.40
2019-01-20T05:37:54.449Z,5.50
2019-01-20T05:38:54.443Z,5.20
2019-01-20T05:39:54.438Z,5.80
2019-01-20T05:40:54.432Z,6.10
2019-01-20T05:41:54.446Z,5.70
2019-01-20T05:42:54.405Z,5.80
2019-01-20T05:43:54.404Z,5.80
2019-01-20T05:44:54.375Z,5.80
2019-01-20T05:45:54.369Z,5.80
2019-01-20T05:46:54.372Z,5.90
2019-01-20T05:47:54.354Z,6.00
2019-01-20T05:48:54.362Z,6.00
2019-01-20T05:49:54.329Z,5.80
2019-01-20T05:50:54.335Z,6.00
2019-01-20T05:51:54.313Z,5.60
2019-01-20T05:52:54.299Z,5.20
2019-01-20T05:53:54.285Z,5.90
2019-01-20T05:54:54.297Z,6.20
2019-01-20T05:55:54.259Z,6.10
2019-01-20T05:56:54.263Z,6.20
2019-01-20T05:57:54.259Z,5.70
2019-01-20T05:58:54.236Z,5.90
2019-01-20T05:59:54.225Z,5.90
2019-01-20T06:00:54.253Z,6.00
2019-01-20T06:01:54.244Z,6.30
2019-01-20T06:02:54.244Z,6.10
2019-01-20T06:03:54.189Z,5.40
2019-01-20T06:04:54.174Z,6.00
2019-01-20T06:05:54.212Z,6.20
2019-01-20T06:06:54.160Z,5.80
2019-01-20T06:07:54.146Z,5.60
2019-01-20T06:08:54.139Z,5.50
2019-01-20T06:09:54.127Z,6.00
2019-01-20T06:10:54.124Z,6.30
2019-01-20T06:11:54.105Z,6.10
2019-01-20T06:12:54.616Z,5.90
2019-01-20T06:13:54.077Z,5.80
2019-01-20T06:14:54.068Z,5.50
2019-01-20T06:15:54.098Z,6.30
2019-01-20T06:16:54.061Z,6.80
2019-01-20T06:17:54.054Z,6.50
2019-01-20T06:18:54.042Z,6.20
2019-01-20T06:19:54.016Z,5.90
2019-01-20T06:20:54.011Z,6.40
2019-01-20T06:21:54.020Z,5.90
2019-01-20T06:22:54.009Z,6.40
2019-01-20T06:23:53.986Z,5.90
2019-01-20T06:24:53.972Z,6.20
2019-01-20T06:25:53.988Z,6.30
2019-01-20T06:26:53.942Z,6.70
2019-01-20T06:27:53.931Z,6.20
2019-01-20T06:28:53.945Z,6.30
2019-01-20T06:29:53.925Z,6.90
2019-01-20T06:30:53.913Z,6.30
2019-01-20T06:31:53.918Z,6.50
2019-01-20T06:32:53.918Z,6.90
2019-01-20T06:33:53.891Z,6.50
2019-01-20T06:34:53.869Z,6.70
2019-01-20T06:35:53.872Z,6.90
2019-01-20T06:36:53.856Z,6.40
2019-01-20T06:37:53.832Z,7.00
2019-01-20T06:38:53.840Z,6.60
2019-01-20T06:39:53.813Z,7.20
2019-01-20T06:40:53.830Z,6.60
2019-01-20T06:41:53.805Z,6.80
2019-01-20T06:43:01.247Z,6.40
2019-01-20T06:43:54.780Z,7.20
2019-01-20T06:44:53.764Z,7.20
2019-01-20T06:45:53.748Z,7.30
2019-01-20T06:46:53.775Z,7.00
2019-01-20T06:47:53.742Z,7.10
2019-01-20T06:48:53.719Z,6.60
2019-01-20T06:49:53.714Z,6.90
2019-01-20T06:50:53.702Z,6.60
2019-01-20T06:51:53.710Z,7.00
2019-01-20T06:52:53.687Z,7.30
2019-01-20T06:53:53.685Z,7.30
2019-01-20T06:54:53.665Z,6.90
2019-01-20T06:55:53.654Z,7.60
2019-01-20T06:56:53.649Z,7.40
2019-01-20T06:57:53.637Z,7.20
2019-01-20T06:58:53.612Z,6.80
2019-01-20T06:59:53.613Z,7.40
2019-01-20T07:00:53.593Z,7.70
2019-01-20T07:01:53.613Z,7.20
2019-01-20T07:02:53.635Z,6.50
2019-01-20T07:03:53.563Z,7.60
2019-01-20T07:04:53.557Z,6.90
2019-01-20T07:05:53.570Z,6.90
2019-01-20T07:06:53.549Z,6.50
2019-01-20T07:07:53.621Z,6.90
2019-01-20T07:08:53.514Z,6.90
2019-01-20T07:09:53.531Z,6.90
2019-01-20T07:10:53.513Z,7.50
2019-01-20T07:11:53.486Z,7.10
2019-01-20T07:12:53.480Z,7.50
2019-01-20T07:13:53.465Z,7.50
2019-01-20T07:14:53.456Z,7.10
2019-01-20T07:15:53.457Z,7.50
2019-01-20T07:16:53.441Z,7.50
2019-01-20T07:17:53.434Z,7.80
2019-01-20T07:18:53.411Z,7.90
2019-01-20T07:19:53.407Z,7.60
2019-01-20T07:20:53.406Z,7.30
2019-01-20T07:21:53.390Z,8.20
2019-01-20T07:22:53.374Z,7.70
2019-01-20T07:23:53.366Z,7.70
2019-01-20T07:24:53.361Z,7.40
2019-01-20T07:25:53.373Z,7.70
2019-01-20T07:26:53.380Z,8.50
2019-01-20T07:27:53.332Z,7.30
2019-01-20T07:28:53.308Z,7.90
2019-01-20T07:29:53.297Z,7.60
2019-01-20T07:30:53.301Z,8.00
2019-01-20T07:31:53.319Z,8.20
2019-01-20T07:32:53.294Z,7.80
2019-01-20T07:33:53.288Z,7.70
2019-01-20T07:34:53.263Z,7.80
2019-01-20T07:35:53.232Z,7.90
2019-01-20T07:36:53.247Z,8.00
2019-01-20T07:37:53.277Z,8.20
2019-01-20T07:38:53.220Z,7.70
2019-01-20T07:39:53.207Z,7.60
2019-01-20T07:40:53.179Z,7.60
2019-01-20T07:41:53.182Z,7.80
2019-01-20T07:42:53.175Z,7.50
2019-01-20T07:43:53.155Z,7.20
2019-01-20T07:44:53.163Z,8.00
2019-01-20T07:45:53.160Z,7.80
2019-01-20T07:46:53.151Z,8.20
2019-01-20T07:47:53.129Z,7.90
2019-01-20T07:48:53.105Z,8.10
2019-01-20T07:49:53.093Z,8.00
2019-01-20T07:50:53.086Z,7.70
2019-01-20T07:51:53.073Z,7.40
2019-01-20T07:52:53.073Z,7.30
2019-01-20T07:53:53.059Z,7.90
2019-01-20T07:54:53.044Z,7.60
2019-01-20T07:55:53.036Z,7.00
2019-01-20T07:56:53.035Z,7.50
2019-01-20T07:57:53.010Z,7.80
2019-01-20T07:58:53.010Z,7.70
2019-01-20T07:59:53.014Z,7.40
2019-01-20T08:00:53.059Z,7.60
2019-01-20T08:01:52.977Z,7.60
2019-01-20T08:02:52.968Z,8.20
2019-01-20T08:03:52.968Z,7.30
2019-01-20T08:04:52.941Z,7.60
2019-01-20T08:05:52.939Z,7.10
2019-01-20T08:06:52.928Z,7.40
2019-01-20T08:07:52.908Z,7.40
2019-01-20T08:08:52.927Z,7.10
2019-01-20T08:09:52.888Z,7.30
2019-01-20T08:10:52.884Z,6.80
2019-01-20T08:11:52.867Z,7.30
2019-01-20T08:12:52.862Z,7.60
2019-01-20T08:13:52.857Z,7.60
2019-01-20T08:14:52.855Z,7.20
2019-01-20T08:15:52.840Z,7.30
2019-01-20T08:16:52.831Z,7.40
2019-01-20T08:17:52.848Z,7.60
2019-01-20T08:18:52.799Z,7.40
2019-01-20T08:19:52.784Z,7.00
2019-01-20T08:20:52.775Z,7.20
2019-01-20T08:21:52.765Z,7.10
2019-01-20T08:22:52.778Z,7.20
2019-01-20T08:23:52.760Z,7.50
2019-01-20T08:24:52.770Z,6.80
2019-01-20T08:25:52.731Z,7.30
2019-01-20T08:26:52.746Z,7.80
2019-01-20T08:27:52.724Z,7.60
2019-01-20T08:28:52.717Z,7.70
2019-01-20T08:29:52.710Z,7.60
2019-01-20T08:30:52.708Z,6.90
2019-01-20T08:31:52.759Z,7.60
2019-01-20T08:32:52.674Z,7.80
2019-01-20T08:33:52.648Z,7.20
2019-01-20T08:34:52.667Z,7.30
2019-01-20T08:35:52.666Z,7.80
2019-01-20T08:36:52.632Z,6.80
2019-01-20T08:37:52.635Z,7.00
2019-01-20T08:38:52.573Z,7.00
2019-01-20T08:39:52.653Z,7.00
2019-01-20T08:40:52.574Z,6.90
2019-01-20T08:41:52.558Z,6.90
2019-01-20T08:42:52.538Z,7.30
2019-01-20T08:43:52.526Z,6.90
2019-01-20T08:44:52.526Z,6.60
2019-01-20T08:45:52.512Z,6.80
2019-01-20T08:46:52.570Z,6.70
2019-01-20T08:47:52.508Z,7.30
2019-01-20T08:48:52.490Z,7.60
2019-01-20T08:49:52.552Z,7.30
2019-01-20T08:50:52.446Z,7.50
2019-01-20T08:51:52.458Z,7.70
2019-01-20T08:52:52.441Z,7.60
2019-01-20T08:53:52.432Z,8.20
2019-01-20T08:54:52.430Z,9.30
2019-01-20T08:55:52.399Z,9.30
2019-01-20T08:56:52.403Z,9.50
2019-01-20T08:57:52.387Z,9.70
2019-01-20T08:58:52.370Z,9.20
2019-01-20T08:59:52.356Z,9.50
2019-01-20T09:00:52.342Z,9.60
2019-01-20T09:01:52.341Z,9.80
2019-01-20T09:02:52.350Z,9.60
2019-01-20T09:03:52.350Z,9.70
2019-01-20T09:04:52.300Z,10.00
2019-01-20T09:05:52.287Z,9.60
2019-01-20T09:06:52.287Z,9.90
2019-01-20T09:07:52.268Z,10.30
2019-01-20T09:08:52.291Z,10.10
2019-01-20T09:09:52.254Z,10.30
2019-01-20T09:10:52.283Z,10.80
2019-01-20T09:11:52.238Z,10.50
2019-01-20T09:12:52.213Z,9.60
2019-01-20T09:13:52.210Z,9.10
2019-01-20T09:14:52.223Z,9.70
2019-01-20T09:15:52.177Z,10.70
2019-01-20T09:16:52.187Z,10.30
2019-01-20T09:17:52.161Z,10.50
2019-01-20T09:18:52.176Z,10.70
2019-01-20T09:19:52.156Z,10.90
2019-01-20T09:20:52.155Z,10.90
2019-01-20T09:21:52.119Z,11.00
2019-01-20T09:22:52.120Z,10.10
2019-01-20T09:23:52.103Z,10.70
2019-01-20T09:24:52.079Z,11.00
2019-01-20T09:25:52.095Z,10.60
2019-01-20T09:26:52.062Z,10.30
2019-01-20T09:27:52.051Z,9.60
2019-01-20T09:28:52.068Z,10.40
2019-01-20T09:29:52.027Z,11.20
2019-01-20T09:30:52.023Z,11.20
2019-01-20T09:31:52.067Z,11.60
2019-01-20T09:32:51.993Z,11.10
2019-01-20T09:33:51.991Z,10.60
2019-01-20T09:34:51.988Z,10.20
2019-01-20T09:35:51.974Z,10.10
2019-01-20T09:36:51.982Z,10.80
2019-01-20T09:37:51.945Z,10.60
2019-01-20T09:38:51.936Z,10.70
2019-01-20T09:39:51.940Z,9.90
2019-01-20T09:40:51.946Z,9.70
2019-01-20T09:41:51.895Z,9.30
2019-01-20T09:42:51.897Z,9.50
2019-01-20T09:43:51.891Z,8.70
2019-01-20T09:44:51.882Z,9.10
2019-01-20T09:45:51.846Z,9.20
2019-01-20T09:46:51.852Z,9.20
2019-01-20T09:47:51.825Z,9.70
2019-01-20T09:48:51.862Z,10.00
2019-01-20T09:49:51.849Z,9.60
2019-01-20T09:50:51.803Z,9.90
2019-01-20T09:51:51.819Z,10.30
2019-01-20T09:52:51.786Z,11.00
2019-01-20T09:53:51.785Z,10.40
2019-01-20T09:54:51.761Z,9.40
2019-01-20T09:55:51.742Z,8.20
2019-01-20T09:56:51.745Z,8.70
2019-01-20T09:57:51.731Z,9.60
2019-01-20T09:58:51.721Z,10.00
2019-01-20T09:59:51.765Z,10.60
2019-01-20T10:00:51.692Z,10.00
2019-01-20T10:01:51.685Z,9.80
2019-01-20T10:02:51.686Z,8.80
2019-01-20T10:03:51.695Z,8.70
2019-01-20T10:04:51.661Z,8.60
2019-01-20T10:05:51.647Z,9.20
2019-01-20T10:06:51.640Z,9.00
2019-01-20T10:07:51.652Z,9.10
2019-01-20T10:08:51.606Z,9.20
2019-01-20T10:09:51.611Z,8.60
2019-01-20T10:10:51.616Z,8.80
2019-01-20T10:11:51.620Z,9.10
2019-01-20T10:12:51.575Z,8.40
2019-01-20T10:13:55.018Z,9.20
2019-01-20T10:14:51.574Z,8.80
2019-01-20T10:15:52.312Z,8.20
2019-01-20T10:16:52.985Z,7.60
2019-01-20T10:17:51.559Z,7.00
2019-01-20T10:18:51.521Z,7.60
2019-01-20T10:19:51.555Z,7.40
2019-01-20T10:20:51.471Z,7.00
2019-01-20T10:21:51.476Z,7.30
2019-01-20T10:22:51.508Z,7.10
2019-01-20T10:23:51.459Z,7.30
2019-01-20T10:24:51.485Z,7.30
2019-01-20T10:25:51.428Z,7.40
2019-01-20T10:26:51.407Z,7.30
2019-01-20T10:27:51.401Z,7.40
2019-01-20T10:28:51.384Z,7.70
2019-01-20T10:29:51.439Z,8.00
2019-01-20T10:30:51.385Z,7.50
2019-01-20T10:31:51.400Z,7.40
2019-01-20T10:32:51.337Z,7.70
2019-01-20T10:33:51.350Z,7.70
2019-01-20T10:34:51.383Z,7.50
2019-01-20T10:35:51.331Z,8.00
2019-01-20T10:36:51.327Z,7.90
2019-01-20T10:37:51.347Z,7.00
2019-01-20T10:38:51.293Z,7.90
2019-01-20T10:39:51.277Z,8.30
2019-01-20T10:40:51.283Z,8.60
2019-01-20T10:41:51.343Z,7.90
2019-01-20T10:42:51.277Z,8.00
2019-01-20T10:43:51.230Z,7.80
2019-01-20T10:44:51.225Z,8.10
2019-01-20T10:45:51.263Z,7.80
2019-01-20T10:46:51.191Z,7.60
2019-01-20T10:47:51.222Z,7.80
2019-01-20T10:48:51.233Z,7.30
2019-01-20T10:49:51.156Z,8.50
2019-01-20T10:50:51.150Z,7.90
2019-01-20T10:51:51.167Z,8.30
2019-01-20T10:52:51.141Z,8.00
2019-01-20T10:53:53.169Z,7.60
2019-01-20T10:54:51.146Z,7.90
2019-01-20T10:55:51.136Z,8.70
2019-01-20T10:56:51.125Z,8.20
2019-01-20T10:57:51.096Z,7.90
2019-01-20T10:58:51.079Z,8.10
2019-01-20T10:59:51.067Z,7.60
2019-01-20T11:00:51.045Z,7.90
2019-01-20T11:01:51.035Z,8.30
2019-01-20T11:02:51.064Z,8.20
2019-01-20T11:03:51.045Z,8.40
2019-01-20T11:04:57.284Z,8.50
2019-01-20T11:05:51.988Z,8.30
2019-01-20T11:06:50.996Z,8.70
2019-01-20T11:07:50.976Z,8.10
2019-01-20T11:08:50.980Z,8.90
2019-01-20T11:09:50.983Z,8.30
2019-01-20T11:10:50.957Z,8.00
2019-01-20T11:11:50.920Z,8.50
2019-01-20T11:12:50.912Z,7.80
2019-01-20T11:13:50.942Z,8.30
2019-01-20T11:14:50.895Z,7.70
2019-01-20T11:15:50.891Z,8.10
2019-01-20T11:16:50.928Z,8.10
2019-01-20T11:17:50.881Z,9.20
2019-01-20T11:18:50.856Z,8.40
2019-01-20T11:19:50.932Z,9.00
2019-01-20T11:20:50.844Z,8.80
2019-01-20T11:21:50.839Z,8.60
2019-01-20T11:22:50.803Z,8.00
2019-01-20T11:23:50.806Z,7.80
2019-01-20T11:24:50.791Z,8.40
2019-01-20T11:25:50.794Z,9.00
2019-01-20T11:26:50.793Z,8.00
2019-01-20T11:27:50.775Z,8.50
2019-01-20T11:28:50.745Z,8.80
2019-01-20T11:29:50.774Z,8.70
2019-01-20T11:30:50.803Z,8.30
2019-01-20T11:31:50.708Z,8.50
2019-01-20T11:32:50.772Z,8.80
2019-01-20T11:33:50.688Z,9.00
2019-01-20T11:34:50.793Z,8.20
2019-01-20T11:35:50.685Z,8.60
2019-01-20T11:36:50.673Z,8.20
2019-01-20T11:37:50.663Z,8.20
2019-01-20T11:38:50.675Z,8.70
2019-01-20T11:39:50.638Z,8.70
2019-01-20T11:40:50.668Z,8.20
2019-01-20T11:41:50.595Z,8.60
2019-01-20T11:42:50.685Z,8.70
2019-01-20T11:43:50.594Z,8.20
2019-01-20T11:44:50.571Z,8.60
2019-01-20T11:45:50.599Z,8.50
2019-01-20T11:46:50.698Z,8.80
2019-01-20T11:47:50.552Z,9.00
2019-01-20T11:48:50.550Z,8.50
2019-01-20T11:49:50.513Z,8.90
2019-01-20T11:50:50.505Z,8.40
2019-01-20T11:51:50.526Z,8.30
2019-01-20T11:52:50.651Z,8.70
2019-01-20T11:53:50.478Z,8.40
2019-01-20T11:54:50.531Z,9.10
2019-01-20T11:55:50.475Z,9.00
2019-01-20T11:56:50.465Z,9.00
2019-01-20T11:57:50.433Z,8.50
2019-01-20T11:58:50.517Z,9.00
2019-01-20T11:59:50.408Z,8.80
2019-01-20T12:00:50.427Z,9.30
2019-01-20T12:01:50.959Z,8.80
2019-01-20T12:02:50.416Z,9.40
2019-01-20T12:03:50.388Z,8.80
2019-01-20T12:04:50.370Z,9.10
2019-01-20T12:05:50.405Z,9.50
2019-01-20T12:06:50.347Z,9.20
2019-01-20T12:07:50.330Z,9.10
2019-01-20T12:08:50.318Z,9.10
2019-01-20T12:09:50.337Z,9.40
2019-01-20T12:10:50.317Z,9.30
2019-01-20T12:11:50.328Z,10.80
2019-01-20T12:12:50.294Z,9.60
2019-01-20T12:13:50.277Z,8.80
2019-01-20T12:14:50.251Z,9.50
2019-01-20T12:15:50.242Z,9.10
2019-01-20T12:16:50.258Z,9.20
2019-01-20T12:17:50.232Z,9.30
2019-01-20T12:18:50.532Z,11.70
2019-01-20T12:19:50.202Z,10.00
2019-01-20T12:20:50.235Z,9.90
2019-01-20T12:21:50.182Z,9.10
2019-01-20T12:22:50.176Z,9.50
2019-01-20T12:23:50.173Z,9.50
2019-01-20T12:24:50.149Z,9.20
2019-01-20T12:25:50.166Z,9.70
2019-01-20T12:26:50.198Z,9.30
2019-01-20T12:27:50.138Z,9.50
2019-01-20T12:28:50.135Z,10.00
2019-01-20T12:29:51.931Z,9.50
2019-01-20T12:30:50.085Z,9.40
2019-01-20T12:31:50.097Z,9.50
2019-01-20T12:32:50.066Z,9.60
2019-01-20T12:33:50.080Z,9.50
2019-01-20T12:34:50.066Z,9.90
2019-01-20T12:35:50.034Z,9.50
2019-01-20T12:36:50.024Z,9.40
2019-01-20T12:37:50.021Z,9.70
2019-01-20T12:38:50.016Z,9.80
2019-01-20T12:39:50.007Z,10.00
2019-01-20T12:40:49.987Z,9.60
2019-01-20T12:41:49.977Z,10.60
2019-01-20T12:42:49.959Z,10.80
2019-01-20T12:43:49.968Z,9.20
2019-01-20T12:44:50.032Z,9.80
2019-01-20T12:45:49.932Z,9.60
2019-01-20T12:46:49.918Z,9.50
2019-01-20T12:47:49.957Z,9.80
2019-01-20T12:48:49.906Z,10.30
2019-01-20T12:49:49.904Z,10.30
2019-01-20T12:50:49.903Z,10.40
2019-01-20T12:51:49.879Z,10.40
2019-01-20T12:52:49.926Z,10.00
2019-01-20T12:53:49.877Z,10.00
2019-01-20T12:54:49.839Z,10.40
2019-01-20T12:55:49.855Z,10.50
2019-01-20T12:56:49.823Z,10.20
2019-01-20T12:57:49.826Z,10.20
2019-01-20T12:58:49.796Z,10.20
2019-01-20T12:59:49.859Z,9.80
2019-01-20T13:00:49.847Z,10.40
2019-01-20T13:01:49.804Z,10.20
2019-01-20T13:02:49.754Z,10.10
2019-01-20T13:03:49.778Z,10.20
2019-01-20T13:04:49.736Z,9.80
2019-01-20T13:05:49.717Z,10.00
2019-01-20T13:06:49.728Z,10.80
2019-01-20T13:07:49.731Z,10.90
2019-01-20T13:08:49.688Z,10.40
2019-01-20T13:09:49.696Z,10.80
2019-01-20T13:10:49.734Z,12.70
2019-01-20T13:11:49.771Z,14.30
2019-01-20T13:12:49.675Z,15.90
2019-01-20T13:13:49.652Z,11.90
2019-01-20T13:14:49.757Z,11.40
2019-01-20T13:15:49.640Z,10.80
2019-01-20T13:16:49.636Z,10.90